sensor_id;sensor_type;location;lat;lon;timestamp;pressure;altitude;pressure_sealevel;temperature;humidity
12146;BME280;6136;47.032;15.398;2023-01-26T00:01:13;98095.72;;;1.29;100.00
12146;BME280;6136;47.032;15.398;2023-01-26T00:03:41;98093.13;;;1.27;100.00
12146;BME280;6136;47.032;15.398;2023-01-26T00:06:12;98093.19;;;1.23;100.00
12146;BME280;6136;47.032;15.398;2023-01-26T00:08:42;98095.78;;;1.26;100.00
12146;BME280;6136;47.032;15.398;2023-01-26T00:11:14;98092.25;;;1.27;100.00
12146;BME280;6136;47.032;15.398;2023-01-26T00:13:43;98091.38;;;1.28;100.00
12146;BME280;6136;47.032;15.398;2023-01-26T00:16:13;98090.50;;;1.29;100.00
12146;BME280;6136;47.032;15.398;2023-01-26T00:18:42;98087.13;;;1.21;100.00
12146;BME280;6136;47.032;15.398;2023-01-26T00:21:12;98089.72;;;1.22;100.00
12146;BME280;6136;47.032;15.398;2023-01-26T00:23:41;98089.75;;;1.21;100.00
12146;BME280;6136;47.032;15.398;2023-01-26T00:26:14;98091.44;;;1.25;100.00
12146;BME280;6136;47.032;15.398;2023-01-26T00:28:43;98093.22;;;1.21;100.00
12146;BME280;6136;47.032;15.398;2023-01-26T00:31:12;98098.44;;;1.21;100.00
12146;BME280;6136;47.032;15.398;2023-01-26T00:33:41;98094.06;;;1.25;100.00
12146;BME280;6136;47.032;15.398;2023-01-26T00:36:10;98091.44;;;1.25;100.00
12146;BME280;6136;47.032;15.398;2023-01-26T00:38:39;98095.78;;;1.26;100.00
12146;BME280;6136;47.032;15.398;2023-01-26T00:41:08;98092.25;;;1.27;100.00
12146;BME280;6136;47.032;15.398;2023-01-26T00:43:57;98093.94;;;1.31;100.00
12146;BME280;6136;47.032;15.398;2023-01-26T00:46:26;98095.59;;;1.35;100.00
12146;BME280;6136;47.032;15.398;2023-01-26T00:48:54;98087.88;;;1.29;100.00
12146;BME280;6136;47.032;15.398;2023-01-26T00:51:22;98091.38;;;1.26;100.00
12146;BME280;6136;47.032;15.398;2023-01-26T00:53:50;98081.88;;;1.24;100.00
12146;BME280;6136;47.032;15.398;2023-01-26T00:56:19;98078.38;;;1.25;100.00
12146;BME280;6136;47.032;15.398;2023-01-26T00:58:47;98073.16;;;1.25;100.00
12146;BME280;6136;47.032;15.398;2023-01-26T01:01:17;98076.66;;;1.25;100.00
12146;BME280;6136;47.032;15.398;2023-01-26T01:03:45;98084.53;;;1.21;100.00
12146;BME280;6136;47.032;15.398;2023-01-26T01:06:13;98075.03;;;1.16;100.00
12146;BME280;6136;47.032;15.398;2023-01-26T01:08:41;98078.44;;;1.22;100.00
12146;BME280;6136;47.032;15.398;2023-01-26T01:11:10;98065.63;;;1.08;100.00
12146;BME280;6136;47.032;15.398;2023-01-26T01:13:39;98072.47;;;1.13;100.00
12146;BME280;6136;47.032;15.398;2023-01-26T01:16:09;98078.53;;;1.15;100.00
12146;BME280;6136;47.032;15.398;2023-01-26T01:18:39;98069.97;;;1.07;100.00
12146;BME280;6136;47.032;15.398;2023-01-26T01:21:08;98062.97;;;1.09;100.00
12146;BME280;6136;47.032;15.398;2023-01-26T01:23:37;98068.19;;;1.11;100.00
12146;BME280;6136;47.032;15.398;2023-01-26T01:26:06;98069.94;;;1.09;100.00
12146;BME280;6136;47.032;15.398;2023-01-26T01:28:35;98066.41;;;1.11;100.00
12146;BME280;6136;47.032;15.398;2023-01-26T01:31:04;98071.56;;;1.17;100.00
12146;BME280;6136;47.032;15.398;2023-01-26T01:33:32;98073.22;;;1.22;100.00
12146;BME280;6136;47.032;15.398;2023-01-26T01:36:03;98067.13;;;1.20;100.00
12146;BME280;6136;47.032;15.398;2023-01-26T01:38:31;98069.75;;;1.20;100.00
12146;BME280;6136;47.032;15.398;2023-01-26T01:41:01;98068.00;;;1.22;100.00
12146;BME280;6136;47.032;15.398;2023-01-26T01:43:30;98056.66;;;1.23;100.00
12146;BME280;6136;47.032;15.398;2023-01-26T01:45:59;98057.53;;;1.23;100.00
12146;BME280;6136;47.032;15.398;2023-01-26T01:48:30;98066.16;;;1.27;100.00
12146;BME280;6136;47.032;15.398;2023-01-26T01:51:09;98053.09;;;1.27;100.00
12146;BME280;6136;47.032;15.398;2023-01-26T01:53:40;98052.94;;;1.36;100.00
12146;BME280;6136;47.032;15.398;2023-01-26T01:56:12;98059.00;;;1.38;100.00
12146;BME280;6136;47.032;15.398;2023-01-26T01:58:45;98053.81;;;1.35;100.00
12146;BME280;6136;47.032;15.398;2023-01-26T02:01:13;98040.72;;;1.38;100.00
12146;BME280;6136;47.032;15.398;2023-01-26T02:03:44;98039.84;;;1.39;100.00
12146;BME280;6136;47.032;15.398;2023-01-26T02:06:18;98044.25;;;1.35;100.00
12146;BME280;6136;47.032;15.398;2023-01-26T02:08:49;98040.84;;;1.32;100.00
12146;BME280;6136;47.032;15.398;2023-01-26T02:11:22;98035.53;;;1.36;100.00
12146;BME280;6136;47.032;15.398;2023-01-26T02:13:53;98036.50;;;1.31;100.00
12146;BME280;6136;47.032;15.398;2023-01-26T02:16:21;98036.50;;;1.31;100.00
12146;BME280;6136;47.032;15.398;2023-01-26T02:18:49;98026.03;;;1.32;100.00
12146;BME280;6136;47.032;15.398;2023-01-26T02:21:20;98026.00;;;1.34;100.00
12146;BME280;6136;47.032;15.398;2023-01-26T02:24:06;98017.31;;;1.33;100.00
12146;BME280;6136;47.032;15.398;2023-01-26T02:26:40;98005.97;;;1.34;100.00
12146;BME280;6136;47.032;15.398;2023-01-26T02:29:10;98011.19;;;1.34;100.00
12146;BME280;6136;47.032;15.398;2023-01-26T02:31:42;98005.09;;;1.34;100.00
12146;BME280;6136;47.032;15.398;2023-01-26T02:34:10;98005.19;;;1.31;100.00
12146;BME280;6136;47.032;15.398;2023-01-26T02:36:39;98013.78;;;1.36;100.00
12146;BME280;6136;47.032;15.398;2023-01-26T02:39:23;98005.19;;;1.31;100.00
12146;BME280;6136;47.032;15.398;2023-01-26T02:41:55;97994.72;;;1.31;100.00
12146;BME280;6136;47.032;15.398;2023-01-26T02:44:41;97988.69;;;1.29;100.00
12146;BME280;6136;47.032;15.398;2023-01-26T02:47:11;97980.91;;;1.26;100.00
12146;BME280;6136;47.032;15.398;2023-01-26T02:49:40;97983.56;;;1.24;100.00
12146;BME280;6136;47.032;15.398;2023-01-26T02:52:14;97981.81;;;1.25;100.00
12146;BME280;6136;47.032;15.398;2023-01-26T02:54:45;97975.75;;;1.23;100.00
12146;BME280;6136;47.032;15.398;2023-01-26T02:57:32;97978.34;;;1.23;100.00
12146;BME280;6136;47.032;15.398;2023-01-26T03:00:01;97955.81;;;1.19;100.00
12146;BME280;6136;47.032;15.398;2023-01-26T03:02:30;97958.44;;;1.19;100.00
12146;BME280;6136;47.032;15.398;2023-01-26T03:04:58;97968.78;;;1.23;100.00
12146;BME280;6136;47.032;15.398;2023-01-26T03:07:26;97961.00;;;1.20;100.00
12146;BME280;6136;47.032;15.398;2023-01-26T03:09:55;97961.00;;;1.20;100.00
12146;BME280;6136;47.032;15.398;2023-01-26T03:12:24;97939.25;;;1.20;100.00
12146;BME280;6136;47.032;15.398;2023-01-26T03:14:54;97951.38;;;1.24;100.00
12146;BME280;6136;47.032;15.398;2023-01-26T03:17:40;97946.16;;;1.24;100.00
12146;BME280;6136;47.032;15.398;2023-01-26T03:20:09;97941.84;;;1.20;100.00
12146;BME280;6136;47.032;15.398;2023-01-26T03:22:54;97939.31;;;1.16;100.00
12146;BME280;6136;47.032;15.398;2023-01-26T03:25:42;97938.44;;;1.17;100.00
12146;BME280;6136;47.032;15.398;2023-01-26T03:28:31;97937.44;;;1.25;100.00
12146;BME280;6136;47.032;15.398;2023-01-26T03:31:05;97934.00;;;1.21;100.00
12146;BME280;6136;47.032;15.398;2023-01-26T03:33:34;97925.31;;;1.21;100.00
12146;BME280;6136;47.032;15.398;2023-01-26T03:36:03;97921.81;;;1.22;100.00
12146;BME280;6136;47.032;15.398;2023-01-26T03:38:32;97921.69;;;1.28;100.00
12146;BME280;6136;47.032;15.398;2023-01-26T03:41:01;97917.31;;;1.30;100.00
12146;BME280;6136;47.032;15.398;2023-01-26T03:43:47;97919.16;;;1.25;100.00
12146;BME280;6136;47.032;15.398;2023-01-26T03:46:34;97914.81;;;1.24;100.00
12146;BME280;6136;47.032;15.398;2023-01-26T03:49:20;97915.00;;;1.14;100.00
12146;BME280;6136;47.032;15.398;2023-01-26T03:52:06;97904.69;;;1.08;100.00
12146;BME280;6136;47.032;15.398;2023-01-26T03:54:51;97899.38;;;1.11;100.00
12146;BME280;6136;47.032;15.398;2023-01-26T03:57:36;97901.09;;;1.14;100.00
12146;BME280;6136;47.032;15.398;2023-01-26T04:00:05;97901.00;;;1.19;100.00
12146;BME280;6136;47.032;15.398;2023-01-26T04:02:39;97895.81;;;1.17;100.00
12146;BME280;6136;47.032;15.398;2023-01-26T04:05:25;97897.44;;;1.23;100.00
12146;BME280;6136;47.032;15.398;2023-01-26T04:08:12;97901.91;;;1.17;100.00
12146;BME280;6136;47.032;15.398;2023-01-26T04:10:58;97895.84;;;1.15;100.00
12146;BME280;6136;47.032;15.398;2023-01-26T04:13:26;97893.22;;;1.15;100.00
12146;BME280;6136;47.032;15.398;2023-01-26T04:16:21;97887.09;;;1.18;100.00
12146;BME280;6136;47.032;15.398;2023-01-26T04:19:09;97874.91;;;1.19;100.00
12146;BME280;6136;47.032;15.398;2023-01-26T04:21:58;97881.81;;;1.20;100.00
12146;BME280;6136;47.032;15.398;2023-01-26T04:24:27;97873.19;;;1.17;100.00
12146;BME280;6136;47.032;15.398;2023-01-26T04:26:56;97878.41;;;1.17;100.00
12146;BME280;6136;47.032;15.398;2023-01-26T04:29:29;97871.50;;;1.13;100.00
12146;BME280;6136;47.032;15.398;2023-01-26T04:31:57;97875.69;;;1.22;100.00
12146;BME280;6136;47.032;15.398;2023-01-26T04:34:28;97874.84;;;1.20;100.00
12146;BME280;6136;47.032;15.398;2023-01-26T04:36:56;97871.34;;;1.21;100.00
12146;BME280;6136;47.032;15.398;2023-01-26T04:39:31;97860.06;;;1.21;100.00
12146;BME280;6136;47.032;15.398;2023-01-26T04:41:59;97866.13;;;1.23;100.00
12146;BME280;6136;47.032;15.398;2023-01-26T04:44:28;97866.97;;;1.23;100.00
12146;BME280;6136;47.032;15.398;2023-01-26T04:46:56;97857.56;;;1.16;100.00
12146;BME280;6136;47.032;15.398;2023-01-26T04:49:24;97861.06;;;1.13;100.00
12146;BME280;6136;47.032;15.398;2023-01-26T04:51:54;97865.38;;;1.16;100.00
12146;BME280;6136;47.032;15.398;2023-01-26T04:54:23;97861.84;;;1.19;100.00
12146;BME280;6136;47.032;15.398;2023-01-26T04:56:51;97854.06;;;1.15;100.00
12146;BME280;6136;47.032;15.398;2023-01-26T04:59:19;97861.81;;;1.20;100.00
12146;BME280;6136;47.032;15.398;2023-01-26T05:01:47;97860.19;;;1.14;100.00
12146;BME280;6136;47.032;15.398;2023-01-26T05:04:15;97863.56;;;1.20;100.00
12146;BME280;6136;47.032;15.398;2023-01-26T05:06:45;97859.16;;;1.22;100.00
12146;BME280;6136;47.032;15.398;2023-01-26T05:09:15;97861.91;;;1.15;100.00
12146;BME280;6136;47.032;15.398;2023-01-26T05:11:47;97858.47;;;1.12;100.00
12146;BME280;6136;47.032;15.398;2023-01-26T05:14:33;97860.44;;;1.02;100.00
12146;BME280;6136;47.032;15.398;2023-01-26T05:17:29;97851.66;;;1.06;100.00
12146;BME280;6136;47.032;15.398;2023-01-26T05:20:14;97856.88;;;1.06;100.00
12146;BME280;6136;47.032;15.398;2023-01-26T05:23:05;97847.44;;;0.99;100.00
12146;BME280;6136;47.032;15.398;2023-01-26T05:25:45;97858.75;;;1.00;100.00
12146;BME280;6136;47.032;15.398;2023-01-26T05:28:14;97850.97;;;0.97;100.00
12146;BME280;6136;47.032;15.398;2023-01-26T05:30:43;97858.88;;;0.92;100.00
12146;BME280;6136;47.032;15.398;2023-01-26T05:33:11;97850.97;;;0.97;100.00
12146;BME280;6136;47.032;15.398;2023-01-26T05:35:39;97853.66;;;0.92;100.00
12146;BME280;6136;47.032;15.398;2023-01-26T05:38:08;97854.63;;;0.88;100.00
12146;BME280;6136;47.032;15.398;2023-01-26T05:40:37;97858.78;;;0.97;100.00
12146;BME280;6136;47.032;15.398;2023-01-26T05:43:06;97858.16;;;0.86;100.00
12146;BME280;6136;47.032;15.398;2023-01-26T05:46:10;97860.66;;;0.90;100.00
12146;BME280;6136;47.032;15.398;2023-01-26T05:48:41;97853.78;;;0.86;100.00
12146;BME280;6136;47.032;15.398;2023-01-26T05:51:10;97862.56;;;0.82;100.00
12146;BME280;6136;47.032;15.398;2023-01-26T05:53:38;97855.56;;;0.84;100.00
12146;BME280;6136;47.032;15.398;2023-01-26T05:56:07;97856.31;;;0.89;100.00
12146;BME280;6136;47.032;15.398;2023-01-26T05:58:42;97846.72;;;0.91;100.00
12146;BME280;6136;47.032;15.398;2023-01-26T06:01:10;97847.75;;;0.84;100.00
12146;BME280;6136;47.032;15.398;2023-01-26T06:03:46;97849.41;;;0.88;100.00
12146;BME280;6136;47.032;15.398;2023-01-26T06:06:15;97853.78;;;0.88;100.00
12146;BME280;6136;47.032;15.398;2023-01-26T06:08:50;97858.09;;;0.89;100.00
12146;BME280;6136;47.032;15.398;2023-01-26T06:11:31;97840.81;;;0.83;100.00
12146;BME280;6136;47.032;15.398;2023-01-26T06:14:16;97841.75;;;0.79;100.00
12146;BME280;6136;47.032;15.398;2023-01-26T06:16:44;97858.13;;;0.87;100.00
12146;BME280;6136;47.032;15.398;2023-01-26T06:19:13;97851.19;;;0.86;100.00
12146;BME280;6136;47.032;15.398;2023-01-26T06:21:44;97847.81;;;0.81;100.00
12146;BME280;6136;47.032;15.398;2023-01-26T06:24:12;97853.81;;;0.85;100.00
12146;BME280;6136;47.032;15.398;2023-01-26T06:26:41;97846.03;;;0.83;100.00
12146;BME280;6136;47.032;15.398;2023-01-26T06:29:09;97841.69;;;0.82;100.00
12146;BME280;6136;47.032;15.398;2023-01-26T06:31:40;97838.16;;;0.85;100.00
12146;BME280;6136;47.032;15.398;2023-01-26T06:34:09;97839.03;;;0.85;100.00
12146;BME280;6136;47.032;15.398;2023-01-26T06:36:40;97844.25;;;0.85;100.00
12146;BME280;6136;47.032;15.398;2023-01-26T06:39:14;97849.47;;;0.85;100.00
12146;BME280;6136;47.032;15.398;2023-01-26T06:41:43;97840.75;;;0.86;100.00
12146;BME280;6136;47.032;15.398;2023-01-26T06:44:11;97839.91;;;0.84;100.00
12146;BME280;6136;47.032;15.398;2023-01-26T06:46:40;97845.09;;;0.87;100.00
12146;BME280;6136;47.032;15.398;2023-01-26T06:49:09;97842.47;;;0.87;100.00
12146;BME280;6136;47.032;15.398;2023-01-26T06:51:45;97843.28;;;0.89;100.00
12146;BME280;6136;47.032;15.398;2023-01-26T06:54:14;97837.31;;;0.84;100.00
12146;BME280;6136;47.032;15.398;2023-01-26T06:57:07;97842.53;;;0.84;100.00
12146;BME280;6136;47.032;15.398;2023-01-26T06:59:43;97833.78;;;0.88;100.00
12146;BME280;6136;47.032;15.398;2023-01-26T07:02:42;97843.25;;;0.91;100.00
12146;BME280;6136;47.032;15.398;2023-01-26T07:05:10;97838.00;;;0.94;100.00
12146;BME280;6136;47.032;15.398;2023-01-26T07:07:39;97833.81;;;0.85;100.00
12146;BME280;6136;47.032;15.398;2023-01-26T07:10:08;97833.81;;;0.85;100.00
12146;BME280;6136;47.032;15.398;2023-01-26T07:12:37;97832.16;;;0.81;100.00
12146;BME280;6136;47.032;15.398;2023-01-26T07:15:07;97833.06;;;0.80;100.00
12146;BME280;6136;47.032;15.398;2023-01-26T07:17:35;97819.03;;;0.86;100.00
12146;BME280;6136;47.032;15.398;2023-01-26T07:20:06;97825.03;;;0.89;100.00
12146;BME280;6136;47.032;15.398;2023-01-26T07:22:34;97829.28;;;0.95;100.00
12146;BME280;6136;47.032;15.398;2023-01-26T07:25:03;97824.84;;;0.98;100.00
12146;BME280;6136;47.032;15.398;2023-01-26T07:27:31;97819.63;;;0.98;100.00
12146;BME280;6136;47.032;15.398;2023-01-26T07:29:59;97817.91;;;0.97;100.00
12146;BME280;6136;47.032;15.398;2023-01-26T07:32:27;97824.72;;;1.04;100.00
12146;BME280;6136;47.032;15.398;2023-01-26T07:34:56;97821.31;;;1.02;100.00
12146;BME280;6136;47.032;15.398;2023-01-26T07:37:27;97816.22;;;0.96;100.00
12146;BME280;6136;47.032;15.398;2023-01-26T07:39:55;97827.38;;;1.03;100.00
12146;BME280;6136;47.032;15.398;2023-01-26T07:42:23;97823.91;;;1.02;100.00
12146;BME280;6136;47.032;15.398;2023-01-26T07:45:04;97823.91;;;1.02;100.00
12146;BME280;6136;47.032;15.398;2023-01-26T07:47:33;97829.88;;;1.07;100.00
12146;BME280;6136;47.032;15.398;2023-01-26T07:50:01;97821.22;;;1.05;100.00
12146;BME280;6136;47.032;15.398;2023-01-26T07:52:31;97827.13;;;1.15;100.00
12146;BME280;6136;47.032;15.398;2023-01-26T07:54:59;97824.63;;;1.10;100.00
12146;BME280;6136;47.032;15.398;2023-01-26T07:57:27;97834.97;;;1.13;100.00
12146;BME280;6136;47.032;15.398;2023-01-26T07:59:55;97833.16;;;1.19;100.00
12146;BME280;6136;47.032;15.398;2023-01-26T08:02:23;97834.03;;;1.17;100.00
12146;BME280;6136;47.032;15.398;2023-01-26T08:04:51;97825.41;;;1.14;100.00
12146;BME280;6136;47.032;15.398;2023-01-26T08:07:19;97834.75;;;1.26;100.00
12146;BME280;6136;47.032;15.398;2023-01-26T08:09:49;97832.06;;;1.27;100.00
12146;BME280;6136;47.032;15.398;2023-01-26T08:12:17;97843.47;;;1.25;100.00
12146;BME280;6136;47.032;15.398;2023-01-26T08:14:45;97839.03;;;1.27;100.00
12146;BME280;6136;47.032;15.398;2023-01-26T08:17:13;97843.59;;;1.19;100.00
12146;BME280;6136;47.032;15.398;2023-01-26T08:19:43;97840.91;;;1.22;100.00
12146;BME280;6136;47.032;15.398;2023-01-26T08:22:11;97840.75;;;1.28;100.00
12146;BME280;6136;47.032;15.398;2023-01-26T08:24:39;97842.66;;;1.20;100.00
12146;BME280;6136;47.032;15.398;2023-01-26T08:27:09;97839.97;;;1.26;100.00
12146;BME280;6136;47.032;15.398;2023-01-26T08:29:37;97836.59;;;1.19;100.00
12146;BME280;6136;47.032;15.398;2023-01-26T08:32:05;97846.19;;;1.19;100.00
12146;BME280;6136;47.032;15.398;2023-01-26T08:34:34;97848.81;;;1.19;100.00
12146;BME280;6136;47.032;15.398;2023-01-26T08:37:02;97846.94;;;1.24;100.00
12146;BME280;6136;47.032;15.398;2023-01-26T08:39:30;97849.47;;;1.28;100.00
12146;BME280;6136;47.032;15.398;2023-01-26T08:41:58;97851.16;;;1.31;100.00
12146;BME280;6136;47.032;15.398;2023-01-26T08:44:27;97848.53;;;1.31;100.00
12146;BME280;6136;47.032;15.398;2023-01-26T08:46:56;97844.94;;;1.36;100.00
12146;BME280;6136;47.032;15.398;2023-01-26T08:49:24;97844.91;;;1.38;100.00
12146;BME280;6136;47.032;15.398;2023-01-26T08:51:52;97841.53;;;1.33;100.00
12146;BME280;6136;47.032;15.398;2023-01-26T08:54:20;97845.84;;;1.34;100.00
12146;BME280;6136;47.032;15.398;2023-01-26T08:56:49;97845.03;;;1.32;100.00
12146;BME280;6136;47.032;15.398;2023-01-26T08:59:17;97843.25;;;1.34;100.00
12146;BME280;6136;47.032;15.398;2023-01-26T09:01:46;97848.41;;;1.37;100.00
12146;BME280;6136;47.032;15.398;2023-01-26T09:04:16;97851.72;;;1.45;100.00
12146;BME280;6136;47.032;15.398;2023-01-26T09:06:45;97842.09;;;1.47;100.00
12146;BME280;6136;47.032;15.398;2023-01-26T09:09:13;97840.28;;;1.50;100.00
12146;BME280;6136;47.032;15.398;2023-01-26T09:11:41;97839.34;;;1.53;100.00
12146;BME280;6136;47.032;15.398;2023-01-26T09:14:09;97848.13;;;1.49;100.00
12146;BME280;6136;47.032;15.398;2023-01-26T09:16:37;97839.59;;;1.41;100.00
12146;BME280;6136;47.032;15.398;2023-01-26T09:19:07;97848.41;;;1.37;100.00
12146;BME280;6136;47.032;15.398;2023-01-26T09:21:35;97849.25;;;1.39;100.00
12146;BME280;6136;47.032;15.398;2023-01-26T09:24:04;97851.91;;;1.36;100.00
12146;BME280;6136;47.032;15.398;2023-01-26T09:26:32;97862.47;;;1.30;100.00
12146;BME280;6136;47.032;15.398;2023-01-26T09:29:00;97851.34;;;1.22;100.00
12146;BME280;6136;47.032;15.398;2023-01-26T09:31:29;97863.22;;;1.36;100.00
12146;BME280;6136;47.032;15.398;2023-01-26T09:33:57;97859.81;;;1.33;100.00
12146;BME280;6136;47.032;15.398;2023-01-26T09:36:27;97859.75;;;1.34;100.00
12146;BME280;6136;47.032;15.398;2023-01-26T09:38:55;97851.91;;;1.36;100.00
12146;BME280;6136;47.032;15.398;2023-01-26T09:41:44;97860.63;;;1.35;100.00
12146;BME280;6136;47.032;15.398;2023-01-26T09:44:19;97860.44;;;1.44;100.00
12146;BME280;6136;47.032;15.398;2023-01-26T09:47:01;97850.00;;;1.44;100.00
12146;BME280;6136;47.032;15.398;2023-01-26T09:49:41;97845.59;;;1.46;100.00
12146;BME280;6136;47.032;15.398;2023-01-26T09:52:17;97848.13;;;1.49;100.00
12146;BME280;6136;47.032;15.398;2023-01-26T09:54:49;97843.03;;;1.44;100.00
12146;BME280;6136;47.032;15.398;2023-01-26T09:57:22;97846.50;;;1.45;100.00
12146;BME280;6136;47.032;15.398;2023-01-26T09:59:56;97835.19;;;1.44;100.00
12146;BME280;6136;47.032;15.398;2023-01-26T10:02:34;97841.97;;;1.53;100.00
12146;BME280;6136;47.032;15.398;2023-01-26T10:05:13;97832.34;;;1.55;100.00
12146;BME280;6136;47.032;15.398;2023-01-26T10:07:43;97827.13;;;1.55;100.00
12146;BME280;6136;47.032;15.398;2023-01-26T10:10:16;97823.56;;;1.58;100.00
12146;BME280;6136;47.032;15.398;2023-01-26T10:12:47;97813.09;;;1.59;100.00
12146;BME280;6136;47.032;15.398;2023-01-26T10:15:27;97814.81;;;1.60;100.00
12146;BME280;6136;47.032;15.398;2023-01-26T10:17:59;97814.00;;;1.56;100.00
12146;BME280;6136;47.032;15.398;2023-01-26T10:20:31;97812.50;;;1.48;100.00
12146;BME280;6136;47.032;15.398;2023-01-26T10:23:04;97802.84;;;1.50;100.00
12146;BME280;6136;47.032;15.398;2023-01-26T10:25:35;97798.34;;;1.56;100.00
12146;BME280;6136;47.032;15.398;2023-01-26T10:28:11;97799.06;;;1.63;100.00
12146;BME280;6136;47.032;15.398;2023-01-26T10:30:41;97797.41;;;1.61;100.00
12146;BME280;6136;47.032;15.398;2023-01-26T10:33:14;97783.28;;;1.69;100.00
12146;BME280;6136;47.032;15.398;2023-01-26T10:35:43;97776.31;;;1.68;100.00
12146;BME280;6136;47.032;15.398;2023-01-26T10:38:44;97779.63;;;1.76;100.00
12146;BME280;6136;47.032;15.398;2023-01-26T10:41:27;97786.69;;;1.71;100.00
12146;BME280;6136;47.032;15.398;2023-01-26T10:43:57;97777.81;;;1.78;100.00
12146;BME280;6136;47.032;15.398;2023-01-26T10:46:31;97775.88;;;1.86;100.00
12146;BME280;6136;47.032;15.398;2023-01-26T10:49:02;97771.63;;;1.82;100.00
12146;BME280;6136;47.032;15.398;2023-01-26T10:51:32;97769.72;;;1.89;100.00
12146;BME280;6136;47.032;15.398;2023-01-26T10:54:29;97758.44;;;1.87;100.00
12146;BME280;6136;47.032;15.398;2023-01-26T10:57:01;97750.53;;;1.90;100.00
12146;BME280;6136;47.032;15.398;2023-01-26T10:59:32;97753.88;;;1.95;100.00
12146;BME280;6136;47.032;15.398;2023-01-26T11:02:13;97742.72;;;1.88;100.00
12146;BME280;6136;47.032;15.398;2023-01-26T11:05:02;97741.59;;;1.99;100.00
12146;BME280;6136;47.032;15.398;2023-01-26T11:07:33;97746.84;;;1.99;100.00
12146;BME280;6136;47.032;15.398;2023-01-26T11:10:20;97743.97;;;2.08;100.00
12146;BME280;6136;47.032;15.398;2023-01-26T11:12:50;97725.97;;;1.97;100.00
12146;BME280;6136;47.032;15.398;2023-01-26T11:15:20;97731.72;;;2.10;100.00
12146;BME280;6136;47.032;15.398;2023-01-26T11:17:52;97726.78;;;1.99;100.00
12146;BME280;6136;47.032;15.398;2023-01-26T11:20:48;97721.59;;;1.98;100.00
12146;BME280;6136;47.032;15.398;2023-01-26T11:23:26;97718.25;;;1.92;100.00
12146;BME280;6136;47.032;15.398;2023-01-26T11:26:17;97715.69;;;1.91;100.00
12146;BME280;6136;47.032;15.398;2023-01-26T11:29:00;97714.53;;;2.01;100.00
12146;BME280;6136;47.032;15.398;2023-01-26T11:31:41;97715.88;;;2.16;100.00
12146;BME280;6136;47.032;15.398;2023-01-26T11:34:22;97714.22;;;2.13;100.00
12146;BME280;6136;47.032;15.398;2023-01-26T11:36:58;97707.13;;;2.17;100.00
12146;BME280;6136;47.032;15.398;2023-01-26T11:39:33;97702.41;;;1.99;100.00
12146;BME280;6136;47.032;15.398;2023-01-26T11:42:17;97694.75;;;1.92;100.00
12146;BME280;6136;47.032;15.398;2023-01-26T11:45:00;97697.28;;;1.94;100.00
12146;BME280;6136;47.032;15.398;2023-01-26T11:47:45;97686.72;;;1.99;100.00
12146;BME280;6136;47.032;15.398;2023-01-26T11:50:25;97681.84;;;2.17;100.00
12146;BME280;6136;47.032;15.398;2023-01-26T11:53:17;97682.72;;;2.18;100.00
12146;BME280;6136;47.032;15.398;2023-01-26T11:55:57;97676.41;;;2.25;100.00
12146;BME280;6136;47.032;15.398;2023-01-26T11:58:31;97660.91;;;2.19;100.00
12146;BME280;6136;47.032;15.398;2023-01-26T12:01:04;97649.72;;;2.14;100.00
12146;BME280;6136;47.032;15.398;2023-01-26T12:03:39;97653.13;;;2.16;100.00
12146;BME280;6136;47.032;15.398;2023-01-26T12:06:15;97655.03;;;2.11;100.00
12146;BME280;6136;47.032;15.398;2023-01-26T12:08:49;97648.72;;;2.18;100.00
12146;BME280;6136;47.032;15.398;2023-01-26T12:11:22;97647.91;;;2.16;100.00
12146;BME280;6136;47.032;15.398;2023-01-26T12:14:07;97651.56;;;2.10;100.00
12146;BME280;6136;47.032;15.398;2023-01-26T12:16:46;97644.56;;;2.11;100.00
12146;BME280;6136;47.032;15.398;2023-01-26T12:19:30;97642.66;;;2.17;100.00
12146;BME280;6136;47.032;15.398;2023-01-26T12:22:05;97641.72;;;2.20;100.00
12146;BME280;6136;47.032;15.398;2023-01-26T12:24:42;97638.91;;;2.26;100.00
12146;BME280;6136;47.032;15.398;2023-01-26T12:27:35;97631.78;;;2.31;100.00
12146;BME280;6136;47.032;15.398;2023-01-26T12:30:29;97633.75;;;2.23;100.00
12146;BME280;6136;47.032;15.398;2023-01-26T12:33:01;97620.66;;;2.24;100.00
12146;BME280;6136;47.032;15.398;2023-01-26T12:38:30;97618.38;;;2.14;100.00
12146;BME280;6136;47.032;15.398;2023-01-26T12:41:10;97605.22;;;2.15;100.00
12146;BME280;6136;47.032;15.398;2023-01-26T12:43:52;97617.50;;;2.13;100.00
12146;BME280;6136;47.032;15.398;2023-01-26T12:46:26;97615.75;;;2.14;100.00
12146;BME280;6136;47.032;15.398;2023-01-26T12:49:01;97611.31;;;2.16;100.00
12146;BME280;6136;47.032;15.398;2023-01-26T12:51:34;97609.13;;;2.31;100.00
12146;BME280;6136;47.032;15.398;2023-01-26T12:54:09;97605.75;;;2.28;100.00
12146;BME280;6136;47.032;15.398;2023-01-26T12:56:45;97604.03;;;2.27;100.00
12146;BME280;6136;47.032;15.398;2023-01-26T12:59:18;97607.81;;;2.17;100.00
12146;BME280;6136;47.032;15.398;2023-01-26T13:02:21;97597.16;;;2.23;100.00
12146;BME280;6136;47.032;15.398;2023-01-26T13:04:52;97593.75;;;2.21;100.00
12146;BME280;6136;47.032;15.398;2023-01-26T13:07:30;97599.16;;;2.15;100.00
12146;BME280;6136;47.032;15.398;2023-01-26T13:10:20;97600.09;;;2.12;100.00
12146;BME280;6136;47.032;15.398;2023-01-26T13:12:53;97597.16;;;2.23;100.00
12146;BME280;6136;47.032;15.398;2023-01-26T13:15:23;97600.97;;;2.13;100.00
12146;BME280;6136;47.032;15.398;2023-01-26T13:17:56;97591.63;;;2.04;100.00
12146;BME280;6136;47.032;15.398;2023-01-26T13:20:28;97592.34;;;2.09;100.00
12146;BME280;6136;47.032;15.398;2023-01-26T13:23:37;97593.22;;;2.08;100.00
12146;BME280;6136;47.032;15.398;2023-01-26T13:26:22;97596.59;;;2.13;100.00
12146;BME280;6136;47.032;15.398;2023-01-26T13:28:51;97600.94;;;2.14;100.00
12146;BME280;6136;47.032;15.398;2023-01-26T13:31:31;97592.94;;;2.19;100.00
12146;BME280;6136;47.032;15.398;2023-01-26T13:34:06;97592.72;;;2.26;100.00
12146;BME280;6136;47.032;15.398;2023-01-26T13:36:37;97587.50;;;2.26;100.00